createdAt,value
2022-12-18T00:01:30.959Z,-7.85
2022-12-18T00:03:58.173Z,-7.88
2022-12-18T00:06:27.693Z,-7.87
2022-12-18T00:08:55.295Z,-7.83
2022-12-18T00:11:23.710Z,-7.82
2022-12-18T00:13:51.009Z,-7.91
2022-12-18T00:16:21.641Z,-7.86
2022-12-18T00:18:52.390Z,-7.93
2022-12-18T00:21:20.606Z,-7.90
2022-12-18T00:23:48.436Z,-7.90
2022-12-18T00:26:36.328Z,-7.91
2022-12-18T00:29:16.302Z,-7.81
2022-12-18T00:31:43.541Z,-7.78
2022-12-18T00:34:12.607Z,-7.76
2022-12-18T00:36:39.834Z,-7.84
2022-12-18T00:39:06.638Z,-7.87
2022-12-18T00:41:33.051Z,-7.86
2022-12-18T00:43:59.365Z,-7.84
2022-12-18T00:46:25.680Z,-7.79
2022-12-18T00:48:52.020Z,-7.82
2022-12-18T00:51:18.378Z,-7.82
2022-12-18T00:53:44.687Z,-7.86
2022-12-18T00:56:11.033Z,-7.93
2022-12-18T00:58:37.361Z,-7.94
2022-12-18T01:01:05.864Z,-7.91
2022-12-18T01:03:32.221Z,-7.83
2022-12-18T01:05:58.590Z,-7.83
2022-12-18T01:08:25.153Z,-7.73
2022-12-18T01:10:51.769Z,-7.73
2022-12-18T01:13:18.101Z,-7.75
2022-12-18T01:15:51.395Z,-7.76
2022-12-18T01:18:17.793Z,-7.81
2022-12-18T01:20:44.245Z,-7.74
2022-12-18T01:23:10.610Z,-7.79
2022-12-18T01:25:37.379Z,-7.77
2022-12-18T01:28:04.012Z,-7.79
2022-12-18T01:30:30.357Z,-7.69
2022-12-18T01:32:56.668Z,-7.77
2022-12-18T01:35:23.009Z,-7.58
2022-12-18T01:37:49.396Z,-7.74
2022-12-18T01:40:15.775Z,-7.81
2022-12-18T01:42:42.108Z,-7.76
2022-12-18T01:45:14.396Z,-7.71
2022-12-18T01:47:46.681Z,-7.82
2022-12-18T01:50:21.990Z,-7.83
2022-12-18T01:53:19.468Z,-7.84
2022-12-18T01:55:59.218Z,-7.81
2022-12-18T01:58:34.746Z,-7.85
2022-12-18T02:01:01.118Z,-7.79
2022-12-18T02:03:27.510Z,-7.77
2022-12-18T02:06:16.041Z,-7.83
2022-12-18T02:09:08.672Z,-7.75
2022-12-18T02:11:45.864Z,-7.77
2022-12-18T02:14:29.049Z,-7.78
2022-12-18T02:17:06.171Z,-7.69
2022-12-18T02:19:44.165Z,-7.77
2022-12-18T02:22:29.275Z,-7.76
2022-12-18T02:25:12.157Z,-7.83
2022-12-18T02:27:40.097Z,-7.77
2022-12-18T02:30:08.153Z,-7.77
2022-12-18T02:32:40.677Z,-7.85
2022-12-18T02:35:11.590Z,-7.99
2022-12-18T02:37:41.551Z,-7.89
2022-12-18T02:40:09.584Z,-7.87
2022-12-18T02:42:35.923Z,-7.83
2022-12-18T02:45:02.403Z,-7.87
2022-12-18T02:47:33.212Z,-7.94
2022-12-18T02:50:33.080Z,-7.89
2022-12-18T02:53:15.781Z,-7.98
2022-12-18T02:56:06.120Z,-8.03
2022-12-18T02:58:59.687Z,-8.04
2022-12-18T03:01:36.603Z,-8.09
2022-12-18T03:04:23.341Z,-8.01
2022-12-18T03:06:52.204Z,-8.03
2022-12-18T03:09:39.216Z,-8.05
2022-12-18T03:12:17.698Z,-8.09
2022-12-18T03:14:46.211Z,-8.18
2022-12-18T03:17:17.435Z,-8.10
2022-12-18T03:19:45.544Z,-7.99
2022-12-18T03:22:12.268Z,-7.99
2022-12-18T03:24:38.952Z,-7.96
2022-12-18T03:27:10.395Z,-7.99
2022-12-18T03:29:53.580Z,-7.92
2022-12-18T03:32:26.850Z,-7.87
2022-12-18T03:34:58.444Z,-7.92
2022-12-18T03:37:25.058Z,-7.85
2022-12-18T03:39:51.488Z,-7.85
2022-12-18T03:42:33.564Z,-7.81
2022-12-18T03:45:11.075Z,-7.78
2022-12-18T03:47:52.361Z,-7.78
2022-12-18T03:50:26.833Z,-7.89
2022-12-18T03:53:01.266Z,-7.92
2022-12-18T03:55:32.262Z,-7.89
2022-12-18T03:58:00.646Z,-8.00
2022-12-18T04:00:27.625Z,-7.96
2022-12-18T04:02:56.314Z,-7.89
2022-12-18T04:05:25.145Z,-7.91
2022-12-18T04:07:53.254Z,-7.94
2022-12-18T04:10:19.740Z,-7.92
2022-12-18T04:12:46.095Z,-8.02
2022-12-18T04:15:14.255Z,-8.01
2022-12-18T04:17:48.705Z,-7.97
2022-12-18T04:20:15.314Z,-8.02
2022-12-18T04:22:41.637Z,-8.05
2022-12-18T04:25:08.423Z,-7.99
2022-12-18T04:27:34.980Z,-7.96
2022-12-18T04:30:01.440Z,-7.98
2022-12-18T04:32:27.773Z,-7.82
2022-12-18T04:34:54.078Z,-7.83
2022-12-18T04:37:20.505Z,-7.89
2022-12-18T04:39:46.883Z,-7.92
2022-12-18T04:42:13.235Z,-7.91
2022-12-18T04:44:39.536Z,-7.83
2022-12-18T04:47:05.868Z,-7.85
2022-12-18T04:49:32.182Z,-7.85
2022-12-18T04:51:58.514Z,-7.78
2022-12-18T04:54:24.841Z,-7.82
2022-12-18T04:56:51.172Z,-7.86
2022-12-18T04:59:17.539Z,-7.84
2022-12-18T05:01:44.038Z,-7.85
2022-12-18T05:04:11.024Z,-7.91
2022-12-18T05:06:37.486Z,-7.88
2022-12-18T05:09:04.112Z,-7.90
2022-12-18T05:11:30.488Z,-7.80
2022-12-18T05:13:56.818Z,-7.77
2022-12-18T05:16:23.231Z,-7.75
2022-12-18T05:18:49.580Z,-7.81
2022-12-18T05:21:15.952Z,-7.90
2022-12-18T05:23:42.764Z,-7.90
2022-12-18T05:26:09.773Z,-8.00
2022-12-18T05:28:37.009Z,-8.08
2022-12-18T05:31:06.059Z,-7.99
2022-12-18T05:33:35.135Z,-7.99
2022-12-18T05:36:04.963Z,-7.94
2022-12-18T05:38:33.230Z,-7.93
2022-12-18T05:40:59.817Z,-7.94
2022-12-18T05:43:27.377Z,-7.83
2022-12-18T05:45:54.786Z,-7.79
2022-12-18T05:48:22.147Z,-7.80
2022-12-18T05:50:50.617Z,-7.87
2022-12-18T05:53:19.590Z,-7.97
2022-12-18T05:55:46.608Z,-8.02
2022-12-18T05:58:14.080Z,-8.06
2022-12-18T06:00:42.881Z,-8.10
2022-12-18T06:03:11.619Z,-8.06
2022-12-18T06:05:39.616Z,-8.07
2022-12-18T06:08:06.097Z,-8.02
2022-12-18T06:10:32.555Z,-7.92
2022-12-18T06:12:59.138Z,-7.90
2022-12-18T06:15:25.501Z,-7.94
2022-12-18T06:17:52.117Z,-7.93
2022-12-18T06:20:18.657Z,-7.97
2022-12-18T06:22:45.245Z,-7.98
2022-12-18T06:25:11.873Z,-7.95
2022-12-18T06:27:38.267Z,-7.86
2022-12-18T06:30:05.606Z,-7.90
2022-12-18T06:32:31.953Z,-7.93
2022-12-18T06:34:58.565Z,-7.82
2022-12-18T06:37:24.911Z,-7.78
2022-12-18T06:39:51.212Z,-7.82
2022-12-18T06:42:17.525Z,-7.76
2022-12-18T06:44:43.852Z,-7.79
2022-12-18T06:47:10.252Z,-7.87
2022-12-18T06:49:36.556Z,-7.79
2022-12-18T06:52:03.027Z,-7.75
2022-12-18T06:54:29.361Z,-7.69
2022-12-18T06:56:55.709Z,-7.69
2022-12-18T06:59:22.053Z,-7.74
2022-12-18T07:01:48.557Z,-7.87
2022-12-18T07:04:14.999Z,-7.87
2022-12-18T07:06:41.333Z,-7.88
2022-12-18T07:09:07.670Z,-7.84
2022-12-18T07:11:34.365Z,-7.78
2022-12-18T07:14:00.780Z,-7.80
2022-12-18T07:16:27.372Z,-7.72
2022-12-18T07:18:55.610Z,-7.80
2022-12-18T07:21:22.898Z,-7.81
2022-12-18T07:23:49.606Z,-7.68
2022-12-18T07:26:18.871Z,-7.61
2022-12-18T07:28:45.336Z,-7.58
2022-12-18T07:31:18.964Z,-7.56
2022-12-18T07:33:46.488Z,-7.44
2022-12-18T07:36:13.518Z,-7.41
2022-12-18T07:38:40.482Z,-7.43
2022-12-18T07:41:10.042Z,-7.36
2022-12-18T07:43:37.820Z,-7.34
2022-12-18T07:46:04.990Z,-7.30
2022-12-18T07:48:31.701Z,-7.29
2022-12-18T07:51:06.760Z,-7.17
2022-12-18T07:53:34.276Z,-7.12
2022-12-18T07:56:29.420Z,-7.14
2022-12-18T07:58:49.105Z,-7.06
2022-12-18T08:01:15.626Z,-7.02
2022-12-18T08:03:42.328Z,-6.94
2022-12-18T08:06:10.768Z,-6.99
2022-12-18T08:08:37.437Z,-6.96
2022-12-18T08:11:04.039Z,-6.92
2022-12-18T08:13:30.487Z,-6.91
2022-12-18T08:15:57.750Z,-6.74
2022-12-18T08:18:24.166Z,-6.71
2022-12-18T08:20:50.610Z,-6.66
2022-12-18T08:23:16.967Z,-6.64
2022-12-18T08:25:43.308Z,-6.53
2022-12-18T08:28:09.660Z,-6.47
2022-12-18T08:30:36.550Z,-6.37
2022-12-18T08:33:04.853Z,-6.38
2022-12-18T08:35:36.351Z,-6.31
2022-12-18T08:38:04.565Z,-6.14
2022-12-18T08:40:30.925Z,-6.12
2022-12-18T08:42:57.258Z,-6.02
2022-12-18T08:45:23.582Z,-5.91
2022-12-18T08:47:49.890Z,-5.77
2022-12-18T08:50:16.301Z,-5.93
2022-12-18T08:52:42.616Z,-5.75
2022-12-18T08:55:09.844Z,-5.63
2022-12-18T08:57:36.162Z,-5.62
2022-12-18T09:00:02.772Z,-5.51
2022-12-18T09:02:29.228Z,-5.43
2022-12-18T09:04:57.734Z,-5.41
2022-12-18T09:07:24.273Z,-5.47
2022-12-18T09:09:50.595Z,-5.45
2022-12-18T09:12:16.945Z,-5.35
2022-12-18T09:14:43.373Z,-5.14
2022-12-18T09:17:09.740Z,-4.95
2022-12-18T09:19:36.149Z,-4.87
2022-12-18T09:22:02.466Z,-4.78
2022-12-18T09:24:28.814Z,-4.66
2022-12-18T09:26:57.787Z,-4.64
2022-12-18T09:29:24.533Z,-4.59
2022-12-18T09:31:50.886Z,-4.44
2022-12-18T09:34:17.473Z,-4.49
2022-12-18T09:36:43.957Z,-4.50
2022-12-18T09:39:10.315Z,-4.57
2022-12-18T09:41:47.503Z,-4.37
2022-12-18T09:44:28.013Z,-4.27
2022-12-18T09:47:06.947Z,-4.14
2022-12-18T09:49:37.309Z,-3.99
2022-12-18T09:52:20.207Z,-3.91
2022-12-18T09:54:59.679Z,-3.96
2022-12-18T09:57:26.158Z,-3.77
2022-12-18T10:00:24.440Z,-3.78
2022-12-18T10:03:00.864Z,-3.66
2022-12-18T10:05:51.726Z,-3.70
2022-12-18T10:08:22.840Z,-3.74
2022-12-18T10:10:53.581Z,-3.67
2022-12-18T10:13:35.089Z,-3.69
2022-12-18T10:16:01.395Z,-3.75
2022-12-18T10:18:34.424Z,-3.70
2022-12-18T10:21:10.902Z,-3.53
2022-12-18T10:24:03.438Z,-3.52
2022-12-18T10:26:32.253Z,-3.47
2022-12-18T10:29:05.358Z,-3.52
2022-12-18T10:31:32.173Z,-3.35
2022-12-18T10:33:58.587Z,-3.17
2022-12-18T10:36:25.925Z,-3.01
2022-12-18T10:38:52.242Z,-3.08
2022-12-18T10:41:18.516Z,-3.13
2022-12-18T10:43:45.064Z,-2.88
2022-12-18T10:46:11.376Z,-2.87
2022-12-18T10:48:57.804Z,-2.70
2022-12-18T10:51:32.679Z,-2.57
2022-12-18T10:54:06.242Z,-2.52
2022-12-18T10:56:35.620Z,-2.41
2022-12-18T10:59:03.266Z,-2.43
2022-12-18T11:01:56.241Z,-2.33
2022-12-18T11:04:26.519Z,-2.40
2022-12-18T11:07:01.607Z,-2.63
2022-12-18T11:09:31.147Z,-2.66
2022-12-18T11:12:00.462Z,-2.66
2022-12-18T11:14:46.555Z,-2.76
2022-12-18T11:17:29.853Z,-2.83
2022-12-18T11:19:58.981Z,-2.82
2022-12-18T11:22:34.694Z,-2.86
2022-12-18T11:28:26.409Z,-2.83
2022-12-18T11:31:19.003Z,-2.90
2022-12-18T11:34:19.746Z,-2.85
2022-12-18T11:36:43.833Z,-2.67
2022-12-18T11:39:19.067Z,-2.69
2022-12-18T11:41:57.121Z,-2.73
2022-12-18T11:44:32.654Z,-2.62
2022-12-18T11:47:10.427Z,-2.69
2022-12-18T11:49:37.139Z,-2.58
2022-12-18T11:52:14.184Z,-2.59
2022-12-18T11:54:40.504Z,-2.59
2022-12-18T11:57:34.062Z,-2.56
2022-12-18T12:00:17.658Z,-2.47
2022-12-18T12:03:00.156Z,-2.38
2022-12-18T12:05:55.779Z,-2.43
2022-12-18T12:08:41.634Z,-2.36
2022-12-18T12:11:16.724Z,-2.45
2022-12-18T12:13:58.224Z,-2.39
2022-12-18T12:16:42.384Z,-2.30
2022-12-18T12:19:20.531Z,-2.33
2022-12-18T12:22:08.429Z,-2.35
2022-12-18T12:25:12.508Z,-2.38
2022-12-18T12:27:55.736Z,-2.31
2022-12-18T12:30:33.311Z,-2.31
2022-12-18T12:32:59.593Z,-2.35
2022-12-18T12:35:25.870Z,-2.15
2022-12-18T12:38:22.823Z,-2.06
2022-12-18T12:41:02.487Z,-1.91
2022-12-18T12:43:51.117Z,-1.99
2022-12-18T12:46:21.049Z,-1.98
2022-12-18T12:48:57.851Z,-1.96
2022-12-18T12:51:30.885Z,-2.08
2022-12-18T12:53:58.864Z,-2.04
2022-12-18T12:56:33.760Z,-2.01
2022-12-18T12:59:00.070Z,-1.99
2022-12-18T13:01:56.102Z,-2.03
2022-12-18T13:04:26.111Z,-1.98
2022-12-18T13:07:02.264Z,-2.04
2022-12-18T13:09:36.814Z,-2.05
2022-12-18T13:12:11.785Z,-2.08
2022-12-18T13:14:40.841Z,-1.96
2022-12-18T13:17:23.893Z,-2.05
2022-12-18T13:19:52.371Z,-1.99
2022-12-18T13:22:32.364Z,-1.95
2022-12-18T13:24:58.802Z,-2.03
2022-12-18T13:27:43.726Z,-2.00
2022-12-18T13:30:34.720Z,-2.05
2022-12-18T13:33:16.302Z,-1.83
2022-12-18T13:35:48.470Z,-1.97
2022-12-18T13:38:27.046Z,-2.03
2022-12-18T13:41:00.538Z,-2.00
2022-12-18T13:43:46.935Z,-2.00
2022-12-18T13:46:42.976Z,-1.95
2022-12-18T13:49:15.146Z,-2.03
2022-12-18T13:51:44.808Z,-2.00
2022-12-18T13:54:35.888Z,-2.11
2022-12-18T13:57:04.069Z,-2.07
2022-12-18T13:59:40.782Z,-2.11
2022-12-18T14:02:15.683Z,-2.19
2022-12-18T14:04:42.681Z,-2.24
2022-12-18T14:07:14.909Z,-2.27
2022-12-18T14:09:45.162Z,-2.27
2022-12-18T14:12:21.677Z,-2.08
2022-12-18T14:14:55.021Z,-2.15
2022-12-18T14:17:21.867Z,-2.29
2022-12-18T14:19:52.220Z,-2.21
2022-12-18T14:22:27.583Z,-2.22
2022-12-18T14:25:27.601Z,-2.19
2022-12-18T14:28:08.657Z,-2.13
2022-12-18T14:30:43.057Z,-2.13
2022-12-18T14:33:09.310Z,-2.20
2022-12-18T14:35:44.320Z,-2.21
2022-12-18T14:38:16.607Z,-2.09
2022-12-18T14:40:44.170Z,-2.17
2022-12-18T14:43:13.670Z,-2.13
2022-12-18T14:45:44.649Z,-2.18
2022-12-18T14:48:23.354Z,-2.17
2022-12-18T14:51:06.060Z,-2.31
2022-12-18T14:53:50.501Z,-2.33
2022-12-18T14:56:26.321Z,-2.37
2022-12-18T14:59:00.859Z,-2.32
2022-12-18T15:01:47.593Z,-2.29
2022-12-18T15:04:25.875Z,-2.25
2022-12-18T15:07:12.757Z,-2.27
2022-12-18T15:09:41.665Z,-2.23
2022-12-18T15:12:26.828Z,-2.15
2022-12-18T15:14:53.091Z,-2.18
2022-12-18T15:17:23.843Z,-2.08
2022-12-18T15:20:01.977Z,-2.14
2022-12-18T15:22:35.403Z,-2.26
2022-12-18T15:25:02.946Z,-2.21
2022-12-18T15:27:37.522Z,-2.17
2022-12-18T15:30:09.888Z,-2.15
2022-12-18T15:32:40.910Z,-2.20
2022-12-18T15:35:21.669Z,-2.20
2022-12-18T15:37:48.779Z,-2.17
2022-12-18T15:40:23.815Z,-2.19
2022-12-18T15:42:55.095Z,-2.25
2022-12-18T15:45:21.525Z,-2.17
2022-12-18T15:47:50.391Z,-2.16
2022-12-18T15:50:16.712Z,-2.18
2022-12-18T15:52:45.892Z,-2.15
2022-12-18T15:55:18.325Z,-2.12
2022-12-18T15:57:44.642Z,-2.17
2022-12-18T16:00:13.250Z,-2.23
2022-12-18T16:02:39.734Z,-2.19
2022-12-18T16:05:15.184Z,-2.23
2022-12-18T16:07:41.684Z,-2.26
2022-12-18T16:10:08.348Z,-2.12
2022-12-18T16:12:36.653Z,-2.07
2022-12-18T16:15:04.027Z,-2.18
2022-12-18T16:17:30.516Z,-2.12
2022-12-18T16:19:56.861Z,-2.12
2022-12-18T16:22:29.269Z,-2.08
2022-12-18T16:24:57.240Z,-2.13
2022-12-18T16:27:24.798Z,-2.05
2022-12-18T16:29:51.529Z,-2.10
2022-12-18T16:32:20.718Z,-2.04
2022-12-18T16:34:47.759Z,-2.17
2022-12-18T16:37:15.724Z,-2.06
2022-12-18T16:39:43.197Z,-2.07
2022-12-18T16:42:13.938Z,-2.04
2022-12-18T16:44:40.355Z,-2.08
2022-12-18T16:47:06.758Z,-1.98
2022-12-18T16:49:35.602Z,-2.05
2022-12-18T16:52:02.458Z,-2.07
2022-12-18T16:54:28.794Z,-2.09
2022-12-18T16:56:55.094Z,-2.04
2022-12-18T16:59:21.493Z,-2.04
2022-12-18T17:01:48.454Z,-1.98
2022-12-18T17:04:15.317Z,-2.07
2022-12-18T17:06:45.177Z,-2.03
2022-12-18T17:09:14.153Z,-1.95
2022-12-18T17:11:40.863Z,-1.91
2022-12-18T17:14:13.918Z,-1.96
2022-12-18T17:16:40.328Z,-1.95
2022-12-18T17:19:08.791Z,-1.89
2022-12-18T17:21:38.519Z,-1.78
2022-12-18T17:24:06.855Z,-1.74
2022-12-18T17:26:33.153Z,-1.78
2022-12-18T17:29:00.076Z,-1.76
2022-12-18T17:31:29.552Z,-1.87
2022-12-18T17:33:57.141Z,-1.80
2022-12-18T17:36:24.168Z,-1.74
2022-12-18T17:38:55.695Z,-1.82
2022-12-18T17:41:22.444Z,-1.75
2022-12-18T17:44:06.631Z,-1.72
2022-12-18T17:46:34.209Z,-1.61
2022-12-18T17:49:02.319Z,-1.71
2022-12-18T17:51:30.567Z,-1.74
2022-12-18T17:53:56.885Z,-1.74
2022-12-18T17:56:24.793Z,-1.67
2022-12-18T17:58:51.656Z,-1.73
2022-12-18T18:01:21.496Z,-1.58
2022-12-18T18:03:49.222Z,-1.62
2022-12-18T18:06:19.394Z,-1.68
2022-12-18T18:08:45.761Z,-1.52
2022-12-18T18:11:15.090Z,-1.38
2022-12-18T18:13:46.592Z,-1.41
2022-12-18T18:16:13.694Z,-1.41
2022-12-18T18:18:40.020Z,-1.30
2022-12-18T18:21:08.333Z,-1.27
2022-12-18T18:23:35.648Z,-1.31
2022-12-18T18:26:04.364Z,-1.35
2022-12-18T18:28:30.872Z,-1.30
2022-12-18T18:30:57.333Z,-1.35
2022-12-18T18:33:24.182Z,-1.33
2022-12-18T18:35:54.572Z,-1.41
2022-12-18T18:38:21.293Z,-1.36
2022-12-18T18:40:47.628Z,-1.32
2022-12-18T18:43:13.966Z,-1.42
2022-12-18T18:45:40.335Z,-1.39
2022-12-18T18:48:08.487Z,-1.44
2022-12-18T18:50:34.799Z,-1.38
2022-12-18T18:53:01.093Z,-1.42
2022-12-18T18:55:27.449Z,-1.47
2022-12-18T18:57:53.793Z,-1.50
2022-12-18T19:00:20.324Z,-1.57
2022-12-18T19:02:47.719Z,-1.57
2022-12-18T19:05:14.127Z,-1.68
2022-12-18T19:07:40.454Z,-1.58
2022-12-18T19:10:07.546Z,-1.63
2022-12-18T19:12:34.632Z,-1.59
2022-12-18T19:15:03.581Z,-1.67
2022-12-18T19:17:31.602Z,-1.71
2022-12-18T19:19:58.265Z,-1.69
2022-12-18T19:22:24.714Z,-1.66
2022-12-18T19:24:51.081Z,-1.74
2022-12-18T19:27:17.386Z,-1.78
2022-12-18T19:29:43.782Z,-1.87
2022-12-18T19:32:10.199Z,-1.85
2022-12-18T19:34:36.653Z,-1.84
2022-12-18T19:37:03.539Z,-1.92
2022-12-18T19:39:29.988Z,-1.80
2022-12-18T19:41:56.496Z,-1.90
2022-12-18T19:44:22.838Z,-1.86
2022-12-18T19:46:52.013Z,-1.85
2022-12-18T19:49:18.495Z,-1.85
2022-12-18T19:51:45.547Z,-1.83
2022-12-18T19:54:17.249Z,-1.77
2022-12-18T19:56:44.146Z,-1.73
2022-12-18T19:59:10.693Z,-1.78
2022-12-18T20:01:37.232Z,-1.87
2022-12-18T20:04:04.121Z,-1.89
2022-12-18T20:06:47.578Z,-1.89
2022-12-18T20:09:14.204Z,-1.96
2022-12-18T20:11:50.628Z,-2.05
2022-12-18T20:14:19.663Z,-1.96
2022-12-18T20:16:50.761Z,-2.03
2022-12-18T20:19:18.047Z,-2.17
2022-12-18T20:21:44.501Z,-2.12
2022-12-18T20:24:10.917Z,-2.13
2022-12-18T20:26:37.491Z,-2.19
2022-12-18T20:29:04.571Z,-2.11
2022-12-18T20:31:31.042Z,-2.19
2022-12-18T20:34:00.213Z,-2.24
2022-12-18T20:36:28.330Z,-2.12
2022-12-18T20:38:58.062Z,-2.01
2022-12-18T20:41:25.761Z,-2.04
2022-12-18T20:43:53.680Z,-1.97
2022-12-18T20:46:24.022Z,-2.13
2022-12-18T20:49:09.343Z,-2.12
2022-12-18T20:51:39.983Z,-2.00
2022-12-18T20:54:11.518Z,-1.95
2022-12-18T20:56:41.728Z,-2.06
2022-12-18T20:59:17.847Z,-1.93
2022-12-18T21:01:45.349Z,-2.06
2022-12-18T21:04:15.196Z,-2.06
2022-12-18T21:06:49.443Z,-2.02
2022-12-18T21:09:18.666Z,-2.00
2022-12-18T21:11:45.020Z,-2.17
2022-12-18T21:14:17.056Z,-2.09
2022-12-18T21:16:44.121Z,-2.14
2022-12-18T21:19:15.449Z,-2.04
2022-12-18T21:21:42.458Z,-2.06
2022-12-18T21:24:10.126Z,-2.09
2022-12-18T21:26:41.954Z,-2.02
2022-12-18T21:29:17.457Z,-2.10
2022-12-18T21:31:44.540Z,-2.03
2022-12-18T21:34:19.258Z,-1.99
2022-12-18T21:36:46.507Z,-1.93
2022-12-18T21:39:13.649Z,-1.90
2022-12-18T21:41:42.291Z,-1.95
2022-12-18T21:44:12.628Z,-1.95
2022-12-18T21:46:41.880Z,-1.89
2022-12-18T21:49:09.605Z,-1.88
2022-12-18T21:51:36.923Z,-1.87
2022-12-18T21:54:04.040Z,-1.80
2022-12-18T21:56:43.595Z,-1.81
2022-12-18T21:59:10.211Z,-1.87
2022-12-18T22:01:37.580Z,-1.87
2022-12-18T22:04:04.345Z,-1.85
2022-12-18T22:06:30.752Z,-1.88
2022-12-18T22:08:57.075Z,-1.82
2022-12-18T22:11:23.414Z,-1.83
2022-12-18T22:13:49.810Z,-1.89
2022-12-18T22:16:16.212Z,-1.90
2022-12-18T22:18:42.555Z,-1.81
2022-12-18T22:21:30.391Z,-1.72
2022-12-18T22:23:59.221Z,-1.84
2022-12-18T22:26:27.695Z,-1.91
2022-12-18T22:28:54.385Z,-1.83
2022-12-18T22:31:20.747Z,-1.79
2022-12-18T22:33:47.095Z,-1.67
2022-12-18T22:36:13.453Z,-1.66
2022-12-18T22:38:41.349Z,-1.70
2022-12-18T22:41:07.662Z,-1.65
2022-12-18T22:43:33.976Z,-1.69
2022-12-18T22:46:03.460Z,-1.71
2022-12-18T22:48:29.875Z,-1.63
2022-12-18T22:50:59.004Z,-1.62
2022-12-18T22:53:26.090Z,-1.57
2022-12-18T22:55:59.585Z,-1.59
2022-12-18T22:58:25.885Z,-1.57
2022-12-18T23:00:52.236Z,-1.49
2022-12-18T23:03:18.609Z,-1.58
2022-12-18T23:05:44.983Z,-1.62
2022-12-18T23:08:11.288Z,-1.53
2022-12-18T23:10:38.134Z,-1.61
2022-12-18T23:13:04.726Z,-1.65
2022-12-18T23:15:31.203Z,-1.48
2022-12-18T23:17:58.481Z,-1.58
2022-12-18T23:20:26.510Z,-1.63
2022-12-18T23:22:53.359Z,-1.60
2022-12-18T23:25:19.696Z,-1.53
2022-12-18T23:27:46.023Z,-1.54
2022-12-18T23:30:12.748Z,-1.55
2022-12-18T23:32:39.085Z,-1.51
2022-12-18T23:35:05.934Z,-1.53
2022-12-18T23:37:57.469Z,-1.63
2022-12-18T23:40:20.273Z,-1.55
2022-12-18T23:42:46.612Z,-1.51
2022-12-18T23:45:17.760Z,-1.50
2022-12-18T23:47:44.624Z,-1.53
2022-12-18T23:50:13.364Z,-1.53
2022-12-18T23:52:40.093Z,-1.48
2022-12-18T23:55:06.834Z,-1.53
2022-12-18T23:57:33.151Z,-1.49
2022-12-18T23:59:59.439Z,-1.45
